Terminal Aerodrome Forecast
Issued by NWS

Home | Current Version | Previous Version | Text Only | Print | Product List | Glossary On
Versions: 1 2 3 4 5 6 7 8 9 10 11 12 13 14 15 16 17
000
FTUS45 KTFX 051100
TAFGTF
TAF
KGTF 051120Z 0512/0612 22012KT P6SM BKN150
     FM051900 22018G25KT P6SM BKN120
     FM060400 23012KT P6SM BKN120
      TEMPO 0606/0610 23015G25KT=

USA.gov is the U.S. government's official web portal to all federal, state and local government web resources and services.